createdAt,value
2018-12-21T00:01:54.470Z,2.66
2018-12-21T00:04:25.692Z,2.65
2018-12-21T00:06:56.549Z,2.71
2018-12-21T00:09:27.945Z,2.77
2018-12-21T00:11:59.260Z,2.81
2018-12-21T00:14:31.614Z,2.81
2018-12-21T00:17:02.756Z,2.71
2018-12-21T00:19:33.562Z,2.62
2018-12-21T00:22:04.533Z,2.50
2018-12-21T00:24:35.470Z,2.34
2018-12-21T00:27:06.961Z,2.16
2018-12-21T00:29:37.866Z,2.14
2018-12-21T00:32:13.623Z,2.27
2018-12-21T00:34:49.415Z,2.27
2018-12-21T00:37:25.165Z,2.23
2018-12-21T00:40:01.224Z,2.14
2018-12-21T00:43:07.803Z,2.06
2018-12-21T00:45:44.864Z,2.07
2018-12-21T00:48:15.687Z,2.15
2018-12-21T00:50:46.370Z,2.17
2018-12-21T00:53:17.610Z,2.18
2018-12-21T00:55:48.890Z,2.12
2018-12-21T00:58:19.990Z,2.04
2018-12-21T01:00:50.886Z,2.08
2018-12-21T01:03:22.111Z,2.11
2018-12-21T01:05:53.181Z,2.05
2018-12-21T01:08:24.282Z,2.00
2018-12-21T01:10:55.497Z,1.95
2018-12-21T01:13:26.541Z,1.94
2018-12-21T01:15:57.454Z,1.87
2018-12-21T01:18:28.998Z,1.81
2018-12-21T01:20:59.836Z,1.74
2018-12-21T01:23:30.632Z,1.77
2018-12-21T01:26:01.454Z,1.71
2018-12-21T01:28:33.178Z,1.66
2018-12-21T01:31:04.103Z,1.74
2018-12-21T01:33:35.007Z,1.69
2018-12-21T01:36:05.999Z,1.55
2018-12-21T01:38:37.486Z,1.52
2018-12-21T01:41:09.080Z,1.46
2018-12-21T01:43:40.021Z,1.28
2018-12-21T01:46:11.181Z,1.21
2018-12-21T01:48:42.137Z,1.17
2018-12-21T01:51:12.905Z,1.12
2018-12-21T01:53:44.087Z,1.16
2018-12-21T01:56:14.983Z,1.24
2018-12-21T01:58:45.999Z,1.34
2018-12-21T02:01:16.732Z,1.36
2018-12-21T02:03:47.731Z,1.41
2018-12-21T02:06:18.596Z,1.44
2018-12-21T02:08:49.900Z,1.42
2018-12-21T02:11:20.698Z,1.44
2018-12-21T02:13:51.660Z,1.44
2018-12-21T02:16:22.819Z,1.43
2018-12-21T02:18:53.679Z,1.39
2018-12-21T02:21:24.518Z,1.32
2018-12-21T02:23:55.477Z,1.28
2018-12-21T02:26:26.377Z,1.32
2018-12-21T02:28:57.350Z,1.17
2018-12-21T02:31:28.180Z,1.12
2018-12-21T02:33:59.040Z,1.12
2018-12-21T02:36:29.822Z,1.11
2018-12-21T02:39:00.716Z,1.06
2018-12-21T02:41:31.511Z,1.04
2018-12-21T02:44:02.042Z,1.08
2018-12-21T02:46:32.667Z,1.08
2018-12-21T02:49:03.589Z,1.09
2018-12-21T02:51:34.500Z,1.04
2018-12-21T02:54:05.516Z,1.03
2018-12-21T02:56:36.257Z,0.99
2018-12-21T02:59:07.556Z,0.86
2018-12-21T03:01:38.258Z,0.66
2018-12-21T03:04:09.066Z,0.55
2018-12-21T03:06:39.950Z,0.49
2018-12-21T03:09:12.373Z,0.63
2018-12-21T03:11:43.378Z,0.88
2018-12-21T03:14:14.285Z,0.80
2018-12-21T03:16:45.154Z,0.67
2018-12-21T03:19:15.953Z,0.74
2018-12-21T03:21:46.821Z,0.83
2018-12-21T03:24:17.775Z,0.74
2018-12-21T03:26:48.630Z,0.71
2018-12-21T03:29:20.842Z,0.66
2018-12-21T03:31:51.791Z,0.53
2018-12-21T03:34:23.652Z,0.40
2018-12-21T03:36:55.162Z,0.29
2018-12-21T03:39:25.896Z,0.26
2018-12-21T03:41:56.481Z,0.15
2018-12-21T03:44:28.097Z,0.10
2018-12-21T03:46:58.821Z,0.11
2018-12-21T03:49:30.585Z,0.00
2018-12-21T03:52:01.651Z,-0.11
2018-12-21T03:54:32.609Z,-0.07
2018-12-21T03:57:03.368Z,-0.06
2018-12-21T03:59:34.310Z,-0.09
2018-12-21T04:02:05.375Z,-0.22
2018-12-21T04:04:36.587Z,-0.34
2018-12-21T04:07:07.441Z,-0.38
2018-12-21T04:09:38.364Z,-0.45
2018-12-21T04:12:09.414Z,-0.53
2018-12-21T04:14:40.251Z,-0.47
2018-12-21T04:17:10.984Z,-0.16
2018-12-21T04:19:41.915Z,-0.19
2018-12-21T04:22:12.760Z,-0.24
2018-12-21T04:24:43.599Z,-0.18
2018-12-21T04:27:14.371Z,0.07
2018-12-21T04:29:45.378Z,0.02
2018-12-21T04:32:15.921Z,-0.02
2018-12-21T04:34:47.235Z,-0.11
2018-12-21T04:37:18.300Z,-0.24
2018-12-21T04:39:49.087Z,-0.27
2018-12-21T04:42:19.945Z,-0.25
2018-12-21T04:44:50.906Z,-0.34
2018-12-21T04:47:22.078Z,-0.26
2018-12-21T04:49:52.815Z,-0.28
2018-12-21T04:52:23.761Z,-0.29
2018-12-21T04:54:54.792Z,0.06
2018-12-21T04:57:25.698Z,0.23
2018-12-21T04:59:56.554Z,0.24
2018-12-21T05:02:27.377Z,0.30
2018-12-21T05:04:58.197Z,0.37
2018-12-21T05:07:29.983Z,0.35
2018-12-21T05:10:00.776Z,0.35
2018-12-21T05:12:31.527Z,0.46
2018-12-21T05:15:02.260Z,0.72
2018-12-21T05:17:33.067Z,1.25
2018-12-21T05:20:03.744Z,1.34
2018-12-21T05:22:34.568Z,1.30
2018-12-21T05:25:05.619Z,1.27
2018-12-21T05:27:36.562Z,1.20
2018-12-21T05:30:08.742Z,1.03
2018-12-21T05:32:39.802Z,0.98
2018-12-21T05:35:10.673Z,0.96
2018-12-21T05:37:41.424Z,0.75
2018-12-21T05:40:12.560Z,0.42
2018-12-21T05:42:43.318Z,0.27
2018-12-21T05:45:14.410Z,0.17
2018-12-21T05:47:45.502Z,0.04
2018-12-21T05:50:16.365Z,-0.01
2018-12-21T05:52:47.388Z,0.00
2018-12-21T05:55:18.177Z,-0.06
2018-12-21T05:57:49.064Z,-0.11
2018-12-21T06:00:19.895Z,-0.14
2018-12-21T06:02:50.704Z,-0.16
2018-12-21T06:05:21.936Z,-0.15
2018-12-21T06:07:53.841Z,0.29
2018-12-21T06:10:24.634Z,0.39
2018-12-21T06:12:56.566Z,0.49
2018-12-21T06:15:27.485Z,0.54
2018-12-21T06:17:58.849Z,0.40
2018-12-21T06:20:29.796Z,0.53
2018-12-21T06:23:09.234Z,0.65
2018-12-21T06:25:33.690Z,0.76
2018-12-21T06:28:05.290Z,0.66
2018-12-21T06:30:36.202Z,0.72
2018-12-21T06:33:07.342Z,0.87
2018-12-21T06:35:38.345Z,0.76
2018-12-21T06:38:09.642Z,0.83
2018-12-21T06:40:40.734Z,0.81
2018-12-21T06:43:11.622Z,0.70
2018-12-21T06:45:42.954Z,0.79
2018-12-21T06:48:13.910Z,0.71
2018-12-21T06:50:45.852Z,0.59
2018-12-21T06:53:18.066Z,0.65
2018-12-21T06:55:52.410Z,0.66
2018-12-21T06:58:23.642Z,0.70
2018-12-21T07:00:54.750Z,0.89
2018-12-21T07:03:25.724Z,0.96
2018-12-21T07:05:57.862Z,1.11
2018-12-21T07:08:28.781Z,0.93
2018-12-21T07:10:59.740Z,0.79
2018-12-21T07:13:31.148Z,1.00
2018-12-21T07:16:02.431Z,1.14
2018-12-21T07:18:33.809Z,1.27
2018-12-21T07:21:04.512Z,1.41
2018-12-21T07:23:36.650Z,1.47
2018-12-21T07:26:07.575Z,1.53
2018-12-21T07:28:38.592Z,1.61
2018-12-21T07:31:09.486Z,1.72
2018-12-21T07:33:40.699Z,1.70
2018-12-21T07:36:12.408Z,1.70
2018-12-21T07:38:44.107Z,1.69
2018-12-21T07:41:15.404Z,1.64
2018-12-21T07:43:46.478Z,1.75
2018-12-21T07:46:17.845Z,1.84
2018-12-21T07:48:48.717Z,1.98
2018-12-21T07:51:20.210Z,2.04
2018-12-21T07:53:51.570Z,2.11
2018-12-21T07:56:22.501Z,2.17
2018-12-21T07:58:57.422Z,2.18
2018-12-21T08:01:26.977Z,2.27
2018-12-21T08:03:58.332Z,2.35
2018-12-21T08:06:29.232Z,2.35
2018-12-21T08:09:00.153Z,2.55
2018-12-21T08:11:31.190Z,3.15
2018-12-21T08:14:02.177Z,3.44
2018-12-21T08:16:33.097Z,3.61
2018-12-21T08:19:03.991Z,3.72
2018-12-21T08:21:35.429Z,4.63
2018-12-21T08:24:06.379Z,5.54
2018-12-21T08:26:37.800Z,6.61
2018-12-21T08:29:08.973Z,6.47
2018-12-21T08:31:40.413Z,6.65
2018-12-21T08:34:11.511Z,5.99
2018-12-21T08:36:42.382Z,6.15
2018-12-21T08:39:13.634Z,6.10
2018-12-21T08:41:45.128Z,7.11
2018-12-21T08:44:16.375Z,8.55
2018-12-21T08:46:47.157Z,7.92
2018-12-21T08:49:18.530Z,7.13
2018-12-21T08:51:49.612Z,6.16
2018-12-21T08:54:21.045Z,5.94
2018-12-21T08:56:52.620Z,5.52
2018-12-21T08:59:24.274Z,5.19
2018-12-21T09:01:55.179Z,5.07
2018-12-21T09:04:32.125Z,5.19
2018-12-21T09:06:59.582Z,5.42
2018-12-21T09:09:30.605Z,5.36
2018-12-21T09:12:01.807Z,5.28
2018-12-21T09:14:32.823Z,4.77
2018-12-21T09:17:04.879Z,4.93
2018-12-21T09:19:36.214Z,5.67
2018-12-21T09:22:08.427Z,8.04
2018-12-21T09:24:40.083Z,8.80
2018-12-21T09:27:11.398Z,8.07
2018-12-21T09:29:42.439Z,7.23
2018-12-21T09:32:13.951Z,6.87
2018-12-21T09:34:45.150Z,6.54
2018-12-21T09:37:16.725Z,6.52
2018-12-21T09:39:47.967Z,6.93
2018-12-21T09:42:19.021Z,7.04
2018-12-21T09:44:52.624Z,7.58
2018-12-21T09:47:24.244Z,7.85
2018-12-21T09:49:55.241Z,8.26
2018-12-21T09:52:26.275Z,8.40
2018-12-21T09:54:57.351Z,7.96
2018-12-21T09:57:28.651Z,7.96
2018-12-21T09:59:59.745Z,7.78
2018-12-21T10:02:35.741Z,7.36
2018-12-21T10:05:03.725Z,7.08
2018-12-21T10:07:34.428Z,7.08
2018-12-21T10:10:06.109Z,7.04
2018-12-21T10:12:37.571Z,7.03
2018-12-21T10:15:10.645Z,6.99
2018-12-21T10:17:42.771Z,7.06
2018-12-21T10:20:15.092Z,7.21
2018-12-21T10:22:46.313Z,7.29
2018-12-21T10:25:17.586Z,7.57
2018-12-21T10:27:48.848Z,7.91
2018-12-21T10:30:20.063Z,8.19
2018-12-21T10:32:51.969Z,8.56
2018-12-21T10:35:23.072Z,8.83
2018-12-21T10:37:54.716Z,8.97
2018-12-21T10:40:25.589Z,8.99
2018-12-21T10:42:56.672Z,9.09
2018-12-21T10:45:27.685Z,9.21
2018-12-21T10:48:00.099Z,9.63
2018-12-21T10:50:31.014Z,10.08
2018-12-21T10:53:02.588Z,11.00
2018-12-21T10:55:33.889Z,11.38
2018-12-21T10:58:04.871Z,11.51
2018-12-21T11:00:35.912Z,11.57
2018-12-21T11:03:07.373Z,11.84
2018-12-21T11:05:38.524Z,13.15
2018-12-21T11:08:10.070Z,14.60
2018-12-21T11:10:41.379Z,15.53
2018-12-21T11:13:12.778Z,16.51
2018-12-21T11:15:44.709Z,17.66
2018-12-21T11:18:15.783Z,18.75
2018-12-21T11:20:46.789Z,19.19
2018-12-21T11:23:17.637Z,19.82
2018-12-21T11:25:49.140Z,20.72
2018-12-21T11:28:25.339Z,21.16
2018-12-21T11:30:53.053Z,21.68
2018-12-21T11:33:23.891Z,21.77
2018-12-21T11:35:54.578Z,19.24
2018-12-21T11:38:26.198Z,17.81
2018-12-21T11:40:57.058Z,18.49
2018-12-21T11:43:28.172Z,16.93
2018-12-21T11:45:59.087Z,17.80
2018-12-21T11:48:30.023Z,18.27
2018-12-21T11:51:02.559Z,19.26
2018-12-21T11:53:34.158Z,17.74
2018-12-21T11:56:04.987Z,18.76
2018-12-21T11:58:36.054Z,16.80
2018-12-21T12:01:07.418Z,14.71
2018-12-21T12:03:39.003Z,16.25
2018-12-21T12:06:10.073Z,15.57
2018-12-21T12:08:41.341Z,16.47
2018-12-21T12:11:12.685Z,16.64
2018-12-21T12:13:43.770Z,17.37
2018-12-21T12:16:14.793Z,16.83
2018-12-21T12:18:46.249Z,17.22
2018-12-21T12:21:17.490Z,18.99
2018-12-21T12:23:49.183Z,19.52
2018-12-21T12:26:21.756Z,19.27
2018-12-21T12:28:52.763Z,15.96
2018-12-21T12:31:24.868Z,18.21
2018-12-21T12:33:55.867Z,18.71
2018-12-21T12:36:27.972Z,19.21
2018-12-21T12:38:59.501Z,18.82
2018-12-21T12:41:30.453Z,18.48
2018-12-21T12:44:01.829Z,16.57
2018-12-21T12:46:33.151Z,17.20
2018-12-21T12:49:04.725Z,15.20
2018-12-21T12:51:37.389Z,16.06
2018-12-21T12:54:08.857Z,15.83
2018-12-21T12:56:40.026Z,16.17
2018-12-21T12:59:11.235Z,17.04
2018-12-21T13:01:44.193Z,17.27
2018-12-21T13:04:17.041Z,17.08
2018-12-21T13:06:48.065Z,16.41
2018-12-21T13:09:18.972Z,16.21
2018-12-21T13:11:49.816Z,16.27
2018-12-21T13:14:20.733Z,16.71
2018-12-21T13:16:51.729Z,17.05
2018-12-21T13:19:24.909Z,16.48
2018-12-21T13:21:55.993Z,16.18
2018-12-21T13:24:27.003Z,16.64
2018-12-21T13:26:58.095Z,16.23
2018-12-21T13:29:28.955Z,16.74
2018-12-21T13:32:00.093Z,15.59
2018-12-21T13:34:31.208Z,15.28
2018-12-21T13:37:02.765Z,15.47
2018-12-21T13:39:33.732Z,15.07
2018-12-21T13:42:04.810Z,14.79
2018-12-21T13:44:36.371Z,14.29
2018-12-21T13:47:07.329Z,14.37
2018-12-21T13:49:40.979Z,13.39
2018-12-21T13:52:11.847Z,13.56
2018-12-21T13:54:43.031Z,13.83
2018-12-21T13:57:13.968Z,14.23
2018-12-21T13:59:44.774Z,14.18
2018-12-21T14:02:15.651Z,14.35
2018-12-21T14:04:46.986Z,14.70
2018-12-21T14:07:17.766Z,14.67
2018-12-21T14:09:49.046Z,15.06
2018-12-21T14:12:20.221Z,15.45
2018-12-21T14:14:51.196Z,15.16
2018-12-21T14:17:22.585Z,14.72
2018-12-21T14:19:53.535Z,14.54
2018-12-21T14:22:24.932Z,13.70
2018-12-21T14:24:56.348Z,12.76
2018-12-21T14:27:27.685Z,12.72
2018-12-21T14:29:58.892Z,13.23
2018-12-21T14:32:30.414Z,13.63
2018-12-21T14:35:01.475Z,12.94
2018-12-21T14:37:32.720Z,12.61
2018-12-21T14:40:03.651Z,12.36
2018-12-21T14:42:34.754Z,12.08
2018-12-21T14:45:06.903Z,11.95
2018-12-21T14:47:37.806Z,11.87
2018-12-21T14:50:12.324Z,11.87
2018-12-21T14:52:43.289Z,11.84
2018-12-21T14:55:14.826Z,11.81
2018-12-21T14:57:46.055Z,11.80
2018-12-21T15:00:17.369Z,11.77
2018-12-21T15:02:49.808Z,11.76
2018-12-21T15:05:21.566Z,11.72
2018-12-21T15:07:53.490Z,11.71
2018-12-21T15:10:26.014Z,11.66
2018-12-21T15:12:58.825Z,11.65
2018-12-21T15:15:30.133Z,11.61
2018-12-21T15:18:01.773Z,11.61
2018-12-21T15:20:33.551Z,11.55
2018-12-21T15:23:04.991Z,11.50
2018-12-21T15:25:36.635Z,11.49
2018-12-21T15:28:07.984Z,11.42
2018-12-21T15:30:39.422Z,11.41
2018-12-21T15:33:10.364Z,11.35
2018-12-21T15:35:41.412Z,11.34
2018-12-21T15:38:13.312Z,11.31
2018-12-21T15:40:48.982Z,11.27
2018-12-21T15:43:20.447Z,11.25
2018-12-21T15:45:51.953Z,11.23
2018-12-21T15:48:24.599Z,11.23
2018-12-21T15:50:57.229Z,11.18
2018-12-21T15:53:29.094Z,11.14
2018-12-21T15:56:01.595Z,11.13
2018-12-21T15:58:32.939Z,11.09
2018-12-21T16:01:05.480Z,11.11
2018-12-21T16:03:36.449Z,11.09
2018-12-21T16:06:08.256Z,11.01
2018-12-21T16:08:40.747Z,10.99
2018-12-21T16:11:12.408Z,10.99
2018-12-21T16:13:43.456Z,10.89
2018-12-21T16:16:15.028Z,10.84
2018-12-21T16:18:47.160Z,10.70
2018-12-21T16:21:18.134Z,10.62
2018-12-21T16:23:51.830Z,10.42
2018-12-21T16:26:22.876Z,10.22
2018-12-21T16:28:54.050Z,10.11
2018-12-21T16:31:25.864Z,9.96
2018-12-21T16:33:56.964Z,9.89
2018-12-21T16:36:28.172Z,9.88
2018-12-21T16:38:59.876Z,9.85
2018-12-21T16:41:30.710Z,9.75
2018-12-21T16:44:01.737Z,9.73
2018-12-21T16:46:33.067Z,9.70
2018-12-21T16:49:04.258Z,9.59
2018-12-21T16:51:36.185Z,9.42
2018-12-21T16:54:07.387Z,9.40
2018-12-21T16:56:38.938Z,9.32
2018-12-21T16:59:10.347Z,9.40
2018-12-21T17:01:41.761Z,9.55
2018-12-21T17:04:13.092Z,9.58
2018-12-21T17:06:44.887Z,9.56
2018-12-21T17:09:16.211Z,9.39
2018-12-21T17:11:47.490Z,9.28
2018-12-21T17:14:19.222Z,9.32
2018-12-21T17:16:50.522Z,9.29
2018-12-21T17:19:23.945Z,9.18
2018-12-21T17:21:55.624Z,9.14
2018-12-21T17:24:26.935Z,9.15
2018-12-21T17:26:58.460Z,9.04
2018-12-21T17:29:30.052Z,8.93
2018-12-21T17:32:01.482Z,8.90
2018-12-21T17:34:32.724Z,8.87
2018-12-21T17:37:03.923Z,8.89
2018-12-21T17:39:35.191Z,8.96
2018-12-21T17:42:06.968Z,8.79
2018-12-21T17:44:38.070Z,8.67
2018-12-21T17:47:08.922Z,8.38
2018-12-21T17:49:41.448Z,8.25
2018-12-21T17:52:12.726Z,8.29
2018-12-21T17:54:44.112Z,8.38
2018-12-21T17:57:23.211Z,8.28
2018-12-21T17:59:54.529Z,8.18
2018-12-21T18:02:25.586Z,7.99
2018-12-21T18:04:56.937Z,7.82
2018-12-21T18:07:27.982Z,7.75
2018-12-21T18:09:59.080Z,7.91
2018-12-21T18:12:30.486Z,7.81
2018-12-21T18:15:01.939Z,7.88
2018-12-21T18:17:34.369Z,8.02
2018-12-21T18:20:08.869Z,8.05
2018-12-21T18:22:40.422Z,7.93
2018-12-21T18:25:22.193Z,8.01
2018-12-21T18:27:56.740Z,8.03
2018-12-21T18:30:39.842Z,7.79
2018-12-21T18:33:13.941Z,7.63
2018-12-21T18:35:45.814Z,7.56
2018-12-21T18:38:20.985Z,7.53
2018-12-21T18:40:52.027Z,7.47
2018-12-21T18:43:23.779Z,7.53
2018-12-21T18:45:55.108Z,7.56
2018-12-21T18:48:26.708Z,7.88
2018-12-21T18:50:57.983Z,8.00
2018-12-21T18:53:28.961Z,7.94
2018-12-21T18:55:59.812Z,7.75
2018-12-21T18:58:30.594Z,7.66
2018-12-21T19:01:01.799Z,7.58
2018-12-21T19:03:33.135Z,7.63
2018-12-21T19:06:04.519Z,7.76
2018-12-21T19:08:35.529Z,7.84
2018-12-21T19:11:06.568Z,7.86
2018-12-21T19:13:37.486Z,7.80
2018-12-21T19:16:08.440Z,7.85
2018-12-21T19:18:39.368Z,7.83
2018-12-21T19:21:10.903Z,7.79
2018-12-21T19:23:41.875Z,7.77
2018-12-21T19:26:13.185Z,7.75
2018-12-21T19:28:44.151Z,7.81
2018-12-21T19:31:16.052Z,7.92
2018-12-21T19:33:47.952Z,7.92
2018-12-21T19:36:19.339Z,8.01
2018-12-21T19:38:50.333Z,8.10
2018-12-21T19:41:21.698Z,8.10
2018-12-21T19:43:53.009Z,8.18
2018-12-21T19:46:25.461Z,8.12
2018-12-21T19:48:57.047Z,8.12
2018-12-21T19:51:29.161Z,8.09
2018-12-21T19:54:00.178Z,8.08
2018-12-21T19:57:35.640Z,8.09
2018-12-21T20:00:08.712Z,8.13
2018-12-21T20:02:40.851Z,8.17
2018-12-21T20:05:12.682Z,8.23
2018-12-21T20:07:43.702Z,8.38
2018-12-21T20:10:15.592Z,8.51
2018-12-21T20:12:47.024Z,8.55
2018-12-21T20:15:17.982Z,8.57
2018-12-21T20:17:49.161Z,8.59
2018-12-21T20:20:20.778Z,8.61
2018-12-21T20:22:52.927Z,8.73
2018-12-21T20:25:24.096Z,8.74
2018-12-21T20:27:55.630Z,8.71
2018-12-21T20:30:27.752Z,8.66
2018-12-21T20:32:58.974Z,8.71
2018-12-21T20:35:31.232Z,8.66
2018-12-21T20:38:03.009Z,8.59
2018-12-21T20:40:33.961Z,8.57
2018-12-21T20:43:05.468Z,8.66
2018-12-21T20:45:37.720Z,8.75
2018-12-21T20:48:08.685Z,8.93
2018-12-21T20:50:39.976Z,8.96
2018-12-21T20:53:11.081Z,9.16
2018-12-21T20:55:42.678Z,9.17
2018-12-21T20:58:34.503Z,9.18
2018-12-21T21:01:07.159Z,9.15
2018-12-21T21:03:39.214Z,9.19
2018-12-21T21:06:11.603Z,9.23
2018-12-21T21:08:43.065Z,9.30
2018-12-21T21:11:14.334Z,9.29
2018-12-21T21:13:45.951Z,9.26
2018-12-21T21:16:17.565Z,9.21
2018-12-21T21:18:48.441Z,9.21
2018-12-21T21:21:19.583Z,9.28
2018-12-21T21:23:51.169Z,9.21
2018-12-21T21:26:22.258Z,9.31
2018-12-21T21:28:53.145Z,9.28
2018-12-21T21:31:25.026Z,9.32
2018-12-21T21:33:56.319Z,9.27
2018-12-21T21:36:27.263Z,9.21
2018-12-21T21:38:58.632Z,9.16
2018-12-21T21:41:29.646Z,9.10
2018-12-21T21:44:00.774Z,9.13
2018-12-21T21:46:32.430Z,9.17
2018-12-21T21:49:07.374Z,9.14
2018-12-21T21:51:38.628Z,9.11
2018-12-21T21:54:10.258Z,9.11
2018-12-21T21:56:41.853Z,9.10
2018-12-21T21:59:13.293Z,9.16
2018-12-21T22:01:44.595Z,9.11
2018-12-21T22:04:16.749Z,9.06
2018-12-21T22:06:48.845Z,9.03
2018-12-21T22:09:19.499Z,8.98
2018-12-21T22:11:51.140Z,8.93
2018-12-21T22:14:22.134Z,8.89
2018-12-21T22:16:53.178Z,8.90
2018-12-21T22:19:24.302Z,8.89
2018-12-21T22:21:55.293Z,8.89
2018-12-21T22:24:26.447Z,8.91
2018-12-21T22:26:57.690Z,8.89
2018-12-21T22:29:29.045Z,8.83
2018-12-21T22:32:01.100Z,8.80
2018-12-21T22:34:31.864Z,8.74
2018-12-21T22:37:03.023Z,8.74
2018-12-21T22:39:34.106Z,8.76
2018-12-21T22:42:05.000Z,8.83
2018-12-21T22:44:36.856Z,8.90
2018-12-21T22:47:07.811Z,8.93
2018-12-21T22:49:39.041Z,8.89
2018-12-21T22:52:10.412Z,8.93
2018-12-21T22:54:41.210Z,8.93
2018-12-21T22:57:12.114Z,9.02
2018-12-21T22:59:43.006Z,9.08
2018-12-21T23:02:13.949Z,9.08
2018-12-21T23:04:44.809Z,9.14
2018-12-21T23:07:15.804Z,9.01
2018-12-21T23:09:46.990Z,8.88
2018-12-21T23:12:18.655Z,8.82
2018-12-21T23:14:49.522Z,8.73
2018-12-21T23:17:21.972Z,8.68
2018-12-21T23:19:52.920Z,8.69
2018-12-21T23:22:23.906Z,8.79
2018-12-21T23:24:54.775Z,8.77
2018-12-21T23:27:25.895Z,8.75
2018-12-21T23:29:56.712Z,8.74
2018-12-21T23:32:27.617Z,8.73
2018-12-21T23:34:58.396Z,8.74
2018-12-21T23:37:29.160Z,8.71
2018-12-21T23:40:00.276Z,8.71
2018-12-21T23:42:31.106Z,8.81
2018-12-21T23:45:02.471Z,8.78
2018-12-21T23:47:33.411Z,8.77
2018-12-21T23:50:05.419Z,8.76
2018-12-21T23:52:36.416Z,8.73
2018-12-21T23:55:07.925Z,8.72
2018-12-21T23:57:38.986Z,8.69
